Time;durP1;ratioP1;P1;durP2;ratioP2;P2;SDS_P1;SDS_P2;PMS_P1;PMS_P2;Temp;Humidity;BMP_temperature;BMP_pressure;BME280_temperature;BME280_humidity;BME280_pressure;Samples;Min_cycle;Max_cycle;Signal;HPM_P1;HPM_P2
2022/04/12 00:01:33;;;;;;;8.75;3.20;;;;;;;9.26;53.93;100937.44;5067000;28;20025;-77
2022/04/12 00:04:00;;;;;;;7.32;3.88;;;;;;;9.24;53.69;100932.41;5046184;28;20036;-77
2022/04/12 00:06:26;;;;;;;8.70;3.70;;;;;;;9.32;53.36;100918.72;5043112;28;20067;-77
2022/04/12 00:08:52;;;;;;;8.68;3.67;;;;;;;9.30;53.53;100925.84;5044745;28;20031;-77
2022/04/12 00:11:17;;;;;;;8.20;3.40;;;;;;;9.28;53.75;100923.38;5028306;28;20584;-75
2022/04/12 00:13:43;;;;;;;10.68;3.95;;;;;;;9.29;53.81;100919.84;5046718;28;20025;-77
2022/04/12 00:16:08;;;;;;;9.73;3.45;;;;;;;9.31;54.22;100919.72;5041642;28;20037;-77
2022/04/12 00:21:18;;;;;;;15.00;3.55;;;;;;;9.26;53.60;100911.56;5063154;28;20070;-76
2022/04/12 00:23:44;;;;;;;11.63;3.80;;;;;;;9.23;54.10;100914.44;5060386;28;20037;-77
2022/04/12 00:26:09;;;;;;;6.97;3.47;;;;;;;9.20;54.20;100909.56;5026552;28;20028;-77
2022/04/12 00:28:35;;;;;;;7.25;3.30;;;;;;;9.15;54.53;100918.56;5059670;28;20048;-77
2022/04/12 00:31:00;;;;;;;6.53;3.10;;;;;;;9.23;54.63;100919.59;5041372;28;20232;-77
2022/04/12 00:33:25;;;;;;;6.40;3.28;;;;;;;9.13;54.84;100915.28;5045071;28;20032;-77
2022/04/12 00:35:52;;;;;;;7.68;3.35;;;;;;;9.18;54.46;100914.06;5043746;28;20032;-77
2022/04/12 00:38:18;;;;;;;8.77;4.20;;;;;;;9.09;55.09;100905.38;5024910;28;20173;-77
2022/04/12 00:40:46;;;;;;;7.93;3.40;;;;;;;9.05;55.57;100904.03;5044585;28;20689;-77
2022/04/12 00:43:12;;;;;;;8.05;3.30;;;;;;;9.13;55.37;100911.88;5058744;28;20497;-77
2022/04/12 00:45:38;;;;;;;8.15;4.15;;;;;;;9.00;55.80;100911.41;5063683;28;20029;-77
2022/04/12 00:48:03;;;;;;;7.13;3.47;;;;;;;8.92;56.04;100907.75;5040540;28;20504;-77
2022/04/12 00:50:29;;;;;;;7.85;3.58;;;;;;;8.92;56.63;100897.41;5059387;28;20032;-78
2022/04/12 00:52:56;;;;;;;9.35;3.58;;;;;;;8.99;56.14;100900.25;5057446;28;20497;-77
2022/04/12 00:55:22;;;;;;;7.65;3.80;;;;;;;8.94;56.29;100899.88;5040928;28;20044;-77
2022/04/12 00:57:48;;;;;;;8.63;3.58;;;;;;;8.99;56.03;100897.66;5042767;28;20044;-77
2022/04/12 01:00:16;;;;;;;10.25;4.18;;;;;;;8.88;56.27;100892.69;5022490;28;20048;-77
2022/04/12 01:02:42;;;;;;;6.80;3.47;;;;;;;8.83;56.53;100893.09;5059704;28;20085;-77
2022/04/12 01:05:08;;;;;;;11.13;4.00;;;;;;;8.95;56.16;100894.56;5040289;28;20849;-77
2022/04/12 01:07:35;;;;;;;10.25;4.03;;;;;;;8.84;56.87;100893.94;5022660;28;20123;-77
2022/04/12 01:10:00;;;;;;;9.18;4.03;;;;;;;8.80;56.96;100893.41;5057357;28;20036;-77
2022/04/12 01:12:30;;;;;;;6.93;3.78;;;;;;;8.92;56.50;100892.25;5056951;28;20043;-77
2022/04/12 01:15:17;;;;;;;9.85;3.90;;;;;;;8.91;56.49;100890.63;5054198;28;20041;-77
2022/04/12 01:17:45;;;;;;;6.68;3.72;;;;;;;8.91;56.40;100885.44;5040955;28;20520;-77
2022/04/12 01:20:12;;;;;;;7.72;3.45;;;;;;;8.92;56.58;100886.25;5022502;28;20569;-77
2022/04/12 01:22:47;;;;;;;7.20;3.90;;;;;;;8.88;56.76;100879.75;5038480;28;20116;-77
2022/04/12 01:25:13;;;;;;;9.93;3.50;;;;;;;8.77;57.20;100873.78;5060661;28;20038;-77
2022/04/12 01:27:38;;;;;;;8.43;4.10;;;;;;;8.77;57.21;100870.41;5058836;28;20033;-77
2022/04/12 01:30:04;;;;;;;11.30;4.03;;;;;;;8.83;57.02;100863.84;5043925;28;20032;-77
2022/04/12 01:32:30;;;;;;;9.60;3.50;;;;;;;8.91;56.87;100853.59;5023969;28;20030;-77
2022/04/12 01:34:55;;;;;;;9.90;4.75;;;;;;;8.89;56.89;100848.59;5041512;28;20025;-77
2022/04/12 01:37:21;;;;;;;9.55;4.75;;;;;;;8.86;56.84;100840.28;5025429;28;20037;-77
2022/04/12 01:39:46;;;;;;;7.50;4.10;;;;;;;8.81;57.15;100839.91;5061564;28;20036;-77
2022/04/12 01:42:12;;;;;;;13.18;4.28;;;;;;;8.84;57.17;100843.03;5025014;28;20028;-77
2022/04/12 01:44:37;;;;;;;10.85;4.90;;;;;;;8.93;56.51;100843.94;5060150;28;20045;-77
2022/04/12 01:47:03;;;;;;;10.60;4.13;;;;;;;8.93;56.77;100837.00;5045911;28;20032;-77
2022/04/12 01:49:28;;;;;;;8.23;4.50;;;;;;;8.85;57.12;100841.25;5040124;28;20085;-77
2022/04/12 01:51:54;;;;;;;8.68;4.28;;;;;;;8.84;57.14;100844.78;5062720;28;20572;-77
2022/04/12 01:54:19;;;;;;;10.75;4.25;;;;;;;8.93;56.57;100843.94;5059027;28;20040;-77
2022/04/12 01:56:45;;;;;;;12.82;4.55;;;;;;;8.87;56.38;100847.91;5042913;28;20028;-77
2022/04/12 01:59:10;;;;;;;8.05;4.38;;;;;;;8.92;56.82;100852.63;5023585;28;20039;-77
2022/04/12 02:01:36;;;;;;;7.95;4.45;;;;;;;9.08;56.38;100852.84;5040670;28;20036;-77
2022/04/12 02:04:01;;;;;;;13.15;5.18;;;;;;;9.11;56.14;100852.53;5043455;28;20051;-77
2022/04/12 02:06:27;;;;;;;10.40;4.45;;;;;;;9.06;56.26;100849.59;5043124;28;20032;-77
2022/04/12 02:08:52;;;;;;;9.60;4.60;;;;;;;9.19;56.12;100856.97;5057176;28;20029;-77
2022/04/12 02:11:17;;;;;;;12.32;4.97;;;;;;;9.15;56.07;100856.47;5024654;28;20036;-77
2022/04/12 02:13:43;;;;;;;9.02;4.93;;;;;;;9.18;56.38;100857.16;5042702;28;20397;-77
2022/04/12 02:16:09;;;;;;;11.60;4.55;;;;;;;9.17;56.59;100851.13;5039443;28;20037;-77
2022/04/12 02:18:34;;;;;;;9.63;4.80;;;;;;;9.15;57.13;100853.88;5025526;28;20036;-77
2022/04/12 02:20:59;;;;;;;10.82;4.72;;;;;;;9.11;56.76;100852.53;5062167;28;20447;-76
2022/04/12 02:23:25;;;;;;;10.02;4.18;;;;;;;8.98;57.52;100853.84;5021176;28;20040;-77
2022/04/12 02:25:51;;;;;;;12.77;4.55;;;;;;;8.89;57.97;100861.50;5059343;28;20032;-77
2022/04/12 02:28:19;;;;;;;7.85;4.32;;;;;;;8.95;58.15;100860.94;5040120;28;22448;-77
2022/04/12 02:30:44;;;;;;;8.52;4.18;;;;;;;8.94;58.16;100856.69;5060477;28;20033;-77
2022/04/12 02:33:11;;;;;;;11.35;4.35;;;;;;;8.93;58.22;100854.28;5044186;28;20444;-78
2022/04/12 02:35:36;;;;;;;9.95;3.88;;;;;;;8.97;58.21;100853.03;5025443;28;20028;-77
2022/04/12 02:38:02;;;;;;;11.07;4.65;;;;;;;9.02;57.93;100844.81;5038221;28;20374;-77
2022/04/12 02:40:27;;;;;;;9.48;4.13;;;;;;;8.92;58.77;100844.88;5026334;28;20040;-77
2022/04/12 02:42:53;;;;;;;8.02;4.40;;;;;;;8.87;58.67;100847.06;5043995;28;20029;-77
2022/04/12 02:45:18;;;;;;;12.32;4.72;;;;;;;8.85;58.81;100851.59;5060355;28;20508;-77
2022/04/12 02:47:44;;;;;;;9.40;4.22;;;;;;;8.98;58.46;100844.31;5039514;28;20241;-77
2022/04/12 02:50:09;;;;;;;11.25;4.90;;;;;;;8.98;58.50;100851.25;5040668;28;20037;-77
2022/04/12 02:52:35;;;;;;;7.72;4.32;;;;;;;9.02;57.94;100850.81;5040923;28;20020;-77
2022/04/12 02:55:00;;;;;;;7.47;3.95;;;;;;;8.99;58.30;100852.91;5039093;28;20036;-77
2022/04/12 02:57:26;;;;;;;11.70;4.82;;;;;;;9.00;58.26;100846.75;5022339;28;20047;-77
2022/04/12 02:59:51;;;;;;;7.72;4.10;;;;;;;9.02;57.88;100847.41;5037791;28;20024;-77
2022/04/12 03:02:17;;;;;;;6.97;4.03;;;;;;;8.98;58.60;100856.41;5058982;28;20489;-77
2022/04/12 03:04:42;;;;;;;11.93;4.93;;;;;;;9.06;57.63;100841.00;5037961;28;20051;-77
2022/04/12 03:07:08;;;;;;;9.50;4.13;;;;;;;9.03;58.08;100844.69;5043838;28;20505;-77
2022/04/12 03:09:34;;;;;;;7.38;4.30;;;;;;;8.97;58.45;100842.69;5037279;28;20056;-77
2022/04/12 03:12:00;;;;;;;13.40;4.45;;;;;;;8.85;58.69;100830.91;5040142;28;20033;-77
2022/04/12 03:14:25;;;;;;;9.48;4.53;;;;;;;8.88;58.48;100838.38;5057518;28;20034;-77
2022/04/12 03:16:51;;;;;;;7.82;4.25;;;;;;;8.84;58.56;100824.91;5042869;28;20216;-77
2022/04/12 03:19:16;;;;;;;11.77;4.93;;;;;;;9.00;57.54;100823.47;5042155;28;20607;-77
2022/04/12 03:21:42;;;;;;;8.98;3.85;;;;;;;8.96;57.89;100828.13;5038881;28;20021;-78
2022/04/12 03:24:08;;;;;;;9.05;4.93;;;;;;;8.88;58.21;100840.97;5058824;28;20115;-77
2022/04/12 03:26:34;;;;;;;10.73;4.35;;;;;;;8.82;58.75;100844.13;5039418;28;20604;-77
2022/04/12 03:29:00;;;;;;;7.97;3.85;;;;;;;8.76;58.81;100828.22;5040671;28;20028;-77
2022/04/12 03:31:26;;;;;;;10.05;4.45;;;;;;;8.72;59.33;100816.53;5038753;28;20504;-77
2022/04/12 03:33:51;;;;;;;8.20;4.15;;;;;;;8.74;58.82;100801.69;5023097;28;20040;-77
2022/04/12 03:36:17;;;;;;;8.48;4.05;;;;;;;8.76;59.11;100806.72;5039355;28;20036;-77
2022/04/12 03:38:48;;;;;;;7.88;4.32;;;;;;;8.74;59.14;100809.47;5054614;28;20090;-77
2022/04/12 03:41:21;;;;;;;10.00;4.78;;;;;;;8.64;59.19;100800.09;5052040;28;20043;-77
2022/04/12 03:43:47;;;;;;;11.32;4.20;;;;;;;8.63;59.52;100803.66;5020419;28;20032;-77
2022/04/12 03:46:13;;;;;;;6.88;4.13;;;;;;;8.65;59.37;100797.38;5024606;28;20032;-77
2022/04/12 03:48:38;;;;;;;9.27;3.83;;;;;;;8.64;59.09;100808.66;5027494;28;20094;-77
2022/04/12 03:51:04;;;;;;;9.02;4.43;;;;;;;8.59;59.32;100816.06;5035625;28;20039;-77
2022/04/12 03:53:30;;;;;;;11.02;4.68;;;;;;;8.52;59.38;100818.38;5038920;28;20648;-77
2022/04/12 03:55:55;;;;;;;12.50;4.97;;;;;;;8.53;59.59;100819.19;5028706;28;20131;-76
2022/04/12 03:58:22;;;;;;;7.60;4.43;;;;;;;8.38;60.17;100817.06;5040439;28;20035;-77
2022/04/12 04:00:48;;;;;;;10.35;4.72;;;;;;;8.27;60.78;100814.63;5057618;28;20123;-77
2022/04/12 04:03:15;;;;;;;13.55;4.55;;;;;;;8.24;62.05;100816.69;5039466;28;20048;-77
2022/04/12 04:05:40;;;;;;;12.27;4.47;;;;;;;8.14;62.61;100817.53;5037555;28;20403;-77
2022/04/12 04:08:06;;;;;;;10.90;4.40;;;;;;;8.09;62.49;100805.97;5042912;28;20032;-77
2022/04/12 04:10:32;;;;;;;10.63;4.63;;;;;;;8.24;61.95;100806.34;5026958;28;20089;-77
2022/04/12 04:12:57;;;;;;;11.63;4.43;;;;;;;8.26;61.45;100805.25;5062618;28;20082;-77
2022/04/12 04:15:22;;;;;;;9.55;4.50;;;;;;;8.07;62.06;100802.72;5039379;28;20413;-77
2022/04/12 04:17:48;;;;;;;12.18;4.60;;;;;;;8.12;61.97;100808.28;5039575;28;20429;-77
2022/04/12 04:20:16;;;;;;;9.43;4.25;;;;;;;8.12;61.90;100810.88;5061980;28;20120;-76
2022/04/12 04:22:43;;;;;;;7.60;4.38;;;;;;;7.99;62.25;100817.13;5060471;28;20149;-77
2022/04/12 04:25:10;;;;;;;12.63;5.53;;;;;;;7.99;62.51;100816.34;5043122;28;20069;-77
2022/04/12 04:27:35;;;;;;;14.40;4.57;;;;;;;7.90;63.31;100819.75;5060929;28;20025;-77
2022/04/12 04:30:07;;;;;;;9.95;4.30;;;;;;;7.88;63.05;100821.66;5046902;28;20051;-76
2022/04/12 04:32:33;;;;;;;11.63;5.22;;;;;;;7.92;63.09;100820.41;5025085;28;20038;-77
2022/04/12 04:34:59;;;;;;;10.20;4.38;;;;;;;7.90;62.80;100814.56;5032103;28;20359;-77
2022/04/12 04:37:25;;;;;;;10.55;5.28;;;;;;;7.97;62.54;100810.50;5043944;28;20500;-77
2022/04/12 04:39:50;;;;;;;12.57;5.10;;;;;;;8.09;61.92;100814.53;5025678;28;20032;-76
2022/04/12 04:42:16;;;;;;;9.95;4.47;;;;;;;8.10;62.07;100815.34;5045138;28;20097;-76
2022/04/12 04:44:41;;;;;;;10.52;4.45;;;;;;;7.96;62.58;100819.19;5046605;28;20095;-76
2022/04/12 04:47:07;;;;;;;11.48;4.50;;;;;;;7.83;63.08;100819.47;5047100;28;20029;-77
2022/04/12 04:49:32;;;;;;;9.88;4.65;;;;;;;7.79;63.08;100820.69;5059567;28;20695;-77
2022/04/12 04:51:58;;;;;;;17.20;5.05;;;;;;;7.80;63.16;100822.34;5047707;28;20454;-77
2022/04/12 04:54:23;;;;;;;9.02;4.88;;;;;;;7.74;62.95;100812.53;5042737;28;20028;-77
2022/04/12 04:56:49;;;;;;;10.10;4.78;;;;;;;7.94;62.61;100819.31;5042354;28;20369;-76
2022/04/12 04:59:14;;;;;;;13.48;4.78;;;;;;;7.91;62.65;100811.88;5043471;28;20025;-77
2022/04/12 05:01:40;;;;;;;9.85;4.78;;;;;;;7.93;62.42;100814.28;5047285;28;20036;-77
2022/04/12 05:04:05;;;;;;;10.15;4.93;;;;;;;7.93;62.48;100806.53;5042737;28;20037;-77
2022/04/12 05:06:31;;;;;;;8.77;4.40;;;;;;;7.87;62.88;100809.69;5059581;28;20025;-77
2022/04/12 05:08:57;;;;;;;9.70;4.30;;;;;;;7.96;62.20;100809.66;5040481;28;20031;-76
2022/04/12 05:11:22;;;;;;;10.10;4.50;;;;;;;7.84;62.67;100812.56;5060140;28;20374;-77
2022/04/12 05:13:48;;;;;;;7.63;4.15;;;;;;;7.93;62.12;100804.78;5031190;28;20420;-77
2022/04/12 05:16:13;;;;;;;14.38;4.35;;;;;;;7.86;62.42;100798.53;5028373;28;20040;-77
2022/04/12 05:18:38;;;;;;;12.45;4.35;;;;;;;7.96;62.16;100795.94;5058587;28;20037;-77
2022/04/12 05:21:04;;;;;;;7.43;4.72;;;;;;;7.90;61.88;100789.56;5043601;28;20041;-76
2022/04/12 05:23:29;;;;;;;7.03;3.95;;;;;;;7.96;62.12;100807.06;5055363;28;20032;-76
2022/04/12 05:25:55;;;;;;;8.13;4.40;;;;;;;8.00;61.74;100807.63;5042066;28;20028;-77
2022/04/12 05:28:22;;;;;;;11.32;5.10;;;;;;;8.08;61.80;100812.09;5038525;28;20213;-77
2022/04/12 05:30:47;;;;;;;7.20;3.92;;;;;;;8.09;61.94;100813.72;5036743;28;20043;-76
2022/04/12 05:33:13;;;;;;;7.63;4.22;;;;;;;8.15;61.58;100820.91;5038877;28;20360;-77
2022/04/12 05:35:39;;;;;;;10.25;4.63;;;;;;;8.22;61.47;100829.75;5039758;28;20036;-76
2022/04/12 05:38:06;;;;;;;11.35;4.32;;;;;;;8.28;61.51;100833.53;5060703;28;20055;-77
2022/04/12 05:40:32;;;;;;;10.88;4.05;;;;;;;8.25;62.31;100836.38;5040013;28;20036;-77
2022/04/12 05:42:58;;;;;;;10.07;4.55;;;;;;;8.29;62.18;100838.56;5039510;28;20025;-77
2022/04/12 05:45:23;;;;;;;9.32;4.47;;;;;;;8.31;62.18;100836.66;5025293;28;20025;-76
2022/04/12 05:47:51;;;;;;;7.63;4.22;;;;;;;8.31;62.39;100836.66;5039078;28;20672;-77
2022/04/12 05:50:23;;;;;;;13.50;4.40;;;;;;;8.38;61.98;100836.88;5040204;28;20617;-77
2022/04/12 05:52:49;;;;;;;13.10;4.77;;;;;;;8.42;62.18;100843.47;5043552;28;20072;-77
2022/04/12 05:55:17;;;;;;;7.88;4.03;;;;;;;8.48;61.98;100839.50;5062678;28;20644;-77
2022/04/12 05:57:57;;;;;;;9.40;4.35;;;;;;;8.54;62.08;100838.94;5023606;28;20048;-77
2022/04/12 06:00:24;;;;;;;10.85;4.57;;;;;;;8.58;62.41;100835.91;5038738;28;20523;-76
2022/04/12 06:02:52;;;;;;;7.82;3.88;;;;;;;8.61;62.15;100834.81;5039778;28;20060;-77
2022/04/12 06:05:18;;;;;;;8.48;3.75;;;;;;;8.71;62.14;100833.00;5039786;28;20036;-77
2022/04/12 06:07:45;;;;;;;16.10;5.25;;;;;;;8.70;62.35;100828.81;5060825;28;20094;-77
2022/04/12 06:10:12;;;;;;;8.48;3.95;;;;;;;8.82;62.25;100836.38;5025976;28;20119;-77
2022/04/12 06:12:38;;;;;;;9.05;4.40;;;;;;;8.96;61.89;100830.69;5042639;28;20037;-77
2022/04/12 06:15:05;;;;;;;11.98;4.13;;;;;;;9.02;61.55;100824.94;5062895;28;20082;-77
2022/04/12 06:17:31;;;;;;;12.63;4.43;;;;;;;9.14;60.76;100826.38;5039136;28;20032;-77
2022/04/12 06:20:11;;;;;;;8.35;4.30;;;;;;;9.26;60.72;100826.16;5061698;28;23069;-77
2022/04/12 06:22:38;;;;;;;12.52;4.25;;;;;;;9.39;60.43;100823.22;5052790;28;20091;-76
2022/04/12 06:25:05;;;;;;;6.60;4.00;;;;;;;9.49;60.29;100824.78;5046456;28;20131;-77
2022/04/12 06:27:39;;;;;;;10.90;4.22;;;;;;;9.49;60.13;100822.19;5038733;28;20040;-76
2022/04/12 06:30:15;;;;;;;12.63;4.05;;;;;;;9.67;59.69;100818.78;5056913;28;20405;-77
2022/04/12 06:32:42;;;;;;;11.75;4.10;;;;;;;9.71;59.43;100807.16;5038154;28;20029;-74
2022/04/12 06:35:09;;;;;;;11.95;4.18;;;;;;;9.83;59.54;100810.31;5043425;28;20064;-77
2022/04/12 06:37:34;;;;;;;10.20;3.80;;;;;;;9.91;58.94;100802.63;5041448;28;20068;-77
2022/04/12 06:40:00;;;;;;;8.10;4.03;;;;;;;9.99;59.05;100813.03;5045776;28;20048;-77
2022/04/12 06:42:26;;;;;;;16.05;5.13;;;;;;;10.19;58.58;100810.22;5041079;28;20123;-75
2022/04/12 06:44:52;;;;;;;10.48;3.97;;;;;;;10.41;57.23;100819.28;5040841;28;20040;-77
2022/04/12 06:47:18;;;;;;;13.30;4.15;;;;;;;10.49;56.99;100820.16;5038325;28;20053;-75
2022/04/12 06:49:51;;;;;;;9.63;4.07;;;;;;;10.70;56.34;100814.56;5037604;28;20036;-77
2022/04/12 06:52:20;;;;;;;8.75;4.15;;;;;;;10.75;56.27;100810.69;5054699;28;20039;-78
2022/04/12 06:54:46;;;;;;;6.88;3.88;;;;;;;11.03;55.67;100816.47;5053862;28;20051;-77
2022/04/12 06:57:12;;;;;;;7.18;3.92;;;;;;;11.30;54.51;100825.75;5041277;28;20036;-77
2022/04/12 06:59:37;;;;;;;11.27;3.72;;;;;;;11.63;53.34;100820.59;5023157;28;20067;-75
2022/04/12 07:02:03;;;;;;;10.73;4.53;;;;;;;12.10;52.63;100826.94;5063106;28;20030;-77
2022/04/12 07:04:29;;;;;;;7.60;3.83;;;;;;;12.44;50.49;100831.88;5047139;28;20040;-75
2022/04/12 07:06:56;;;;;;;11.40;4.15;;;;;;;12.67;50.56;100829.34;5044689;28;20029;-77
2022/04/12 07:09:28;;;;;;;8.38;3.45;;;;;;;12.49;50.34;100831.38;5025622;28;20035;-77
2022/04/12 07:11:58;;;;;;;9.93;4.80;;;;;;;12.84;49.81;100817.09;5058438;28;20028;-76
2022/04/12 07:14:25;;;;;;;10.65;4.35;;;;;;;13.17;48.40;100817.72;5057491;28;20546;-77
2022/04/12 07:16:50;;;;;;;9.13;4.38;;;;;;;13.57;47.65;100817.66;5037183;28;20052;-76
2022/04/12 07:19:16;;;;;;;7.40;3.92;;;;;;;13.72;47.71;100826.31;5028579;28;20122;-77
2022/04/12 07:21:42;;;;;;;9.25;4.55;;;;;;;13.80;46.79;100831.44;5059135;28;20039;-75
2022/04/12 07:24:08;;;;;;;8.23;4.10;;;;;;;14.02;47.12;100829.78;5055028;28;20032;-77
2022/04/12 07:26:34;;;;;;;9.68;4.05;;;;;;;14.42;45.96;100819.09;5041944;28;20112;-78
2022/04/12 07:29:00;;;;;;;13.45;3.95;;;;;;;14.83;45.73;100817.84;5043269;28;20024;-77
2022/04/12 07:31:26;;;;;;;7.82;3.78;;;;;;;15.01;44.87;100809.59;5042940;28;20032;-77
2022/04/12 07:33:52;;;;;;;10.23;4.30;;;;;;;15.14;44.81;100813.16;5055044;28;20449;-78
2022/04/12 07:36:18;;;;;;;7.03;4.28;;;;;;;15.35;44.55;100812.34;5041784;28;20086;-78
2022/04/12 07:38:43;;;;;;;9.40;4.82;;;;;;;15.46;44.13;100810.22;5056552;28;20089;-78
2022/04/12 07:41:09;;;;;;;7.57;3.63;;;;;;;15.52;44.02;100799.00;5029688;28;20040;-78
2022/04/12 07:43:37;;;;;;;7.93;3.63;;;;;;;15.86;43.30;100797.50;5059990;28;20083;-78
2022/04/12 07:46:04;;;;;;;10.70;4.40;;;;;;;16.07;43.21;100794.03;5045547;28;20062;-78
2022/04/12 07:48:29;;;;;;;10.25;4.15;;;;;;;15.64;43.73;100788.88;5043472;28;20036;-78
2022/04/12 07:50:55;;;;;;;12.48;4.00;;;;;;;15.18;44.47;100801.34;5029385;28;20437;-78
2022/04/12 07:53:20;;;;;;;12.45;4.30;;;;;;;15.21;44.77;100794.13;5044513;28;20059;-77
2022/04/12 07:55:46;;;;;;;10.75;4.68;;;;;;;14.79;45.49;100796.50;5056945;28;20037;-78
2022/04/12 07:58:11;;;;;;;9.65;4.22;;;;;;;14.57;45.66;100811.28;5061651;28;20029;-78
2022/04/12 08:00:37;;;;;;;12.40;4.93;;;;;;;14.89;45.14;100806.66;5044538;28;20032;-76
2022/04/12 08:03:02;;;;;;;10.43;4.05;;;;;;;14.88;45.24;100802.41;5028260;28;20044;-75
2022/04/12 08:05:28;;;;;;;10.35;4.00;;;;;;;14.87;45.82;100800.81;5062204;28;20024;-78
2022/04/12 08:07:54;;;;;;;11.30;3.47;;;;;;;15.35;45.48;100796.69;5057707;28;20505;-78
2022/04/12 08:10:20;;;;;;;11.10;4.13;;;;;;;15.18;45.74;100792.69;5027649;28;20027;-77
2022/04/12 08:12:46;;;;;;;13.13;4.57;;;;;;;15.45;45.13;100790.34;5028899;28;20040;-77
2022/04/12 08:15:14;;;;;;;7.03;3.70;;;;;;;15.46;44.92;100781.47;5048883;28;20021;-79
2022/04/12 08:17:40;;;;;;;7.47;3.63;;;;;;;15.55;44.90;100782.97;5060526;28;20032;-77
2022/04/12 08:20:06;;;;;;;14.05;4.78;;;;;;;15.55;45.03;100783.75;5030226;28;20111;-78
2022/04/12 08:22:33;;;;;;;8.70;3.97;;;;;;;15.75;44.35;100783.16;5045123;28;20033;-78
2022/04/12 08:24:59;;;;;;;12.48;5.15;;;;;;;15.64;44.59;100781.84;5044656;28;20097;-77
2022/04/12 08:27:25;;;;;;;11.15;3.63;;;;;;;15.84;44.47;100784.63;5047592;28;20025;-78
2022/04/12 08:29:50;;;;;;;12.85;5.30;;;;;;;16.17;44.47;100785.84;5043249;28;20799;-78
2022/04/12 08:32:17;;;;;;;11.32;4.63;;;;;;;16.24;44.18;100784.88;5063382;28;20113;-78
2022/04/12 08:34:43;;;;;;;21.60;4.32;;;;;;;16.64;43.86;100789.47;5042989;28;20036;-78
2022/04/12 08:37:08;;;;;;;8.90;3.85;;;;;;;17.18;42.87;100782.56;5030816;28;20043;-79
2022/04/12 08:39:34;;;;;;;10.13;4.43;;;;;;;17.49;42.27;100781.97;5047378;28;20024;-79
2022/04/12 08:42:04;;;;;;;10.63;5.15;;;;;;;17.39;42.12;100782.38;5044377;28;20059;-78
2022/04/12 08:44:31;;;;;;;10.27;4.32;;;;;;;17.42;41.95;100776.75;5044634;28;20082;-78
2022/04/12 08:46:58;;;;;;;9.27;4.47;;;;;;;16.80;42.79;100777.81;5061707;28;20459;-77
2022/04/12 08:49:24;;;;;;;8.25;3.92;;;;;;;17.10;42.87;100778.31;5044196;28;20029;-76
2022/04/12 08:51:50;;;;;;;9.45;3.90;;;;;;;16.95;43.19;100781.09;5045720;28;20029;-77
2022/04/12 08:54:19;;;;;;;8.38;4.22;;;;;;;17.29;42.63;100772.31;5046469;28;20035;-78
2022/04/12 08:56:48;;;;;;;9.45;4.32;;;;;;;17.30;42.48;100778.34;5043075;28;20847;-78
2022/04/12 08:59:15;;;;;;;5.90;3.15;;;;;;;17.86;42.98;100777.16;5029344;28;20039;-78
2022/04/12 09:01:41;;;;;;;11.90;3.65;;;;;;;17.39;42.16;100779.75;5061563;28;20035;-78
2022/04/12 09:04:07;;;;;;;9.07;4.22;;;;;;;17.28;43.29;100765.44;5065540;28;20041;-79
2022/04/12 09:06:33;;;;;;;7.90;3.63;;;;;;;17.42;43.57;100768.88;5044104;28;20016;-78
2022/04/12 09:09:19;;;;;;;8.18;4.38;;;;;;;17.49;42.69;100774.13;5043889;28;20071;-79
2022/04/12 09:11:59;;;;;;;10.20;3.63;;;;;;;17.29;42.64;100774.94;5023747;28;20106;-78
2022/04/12 09:14:34;;;;;;;9.98;3.92;;;;;;;17.45;42.91;100762.44;5065296;28;20691;-78
2022/04/12 09:17:00;;;;;;;9.25;3.80;;;;;;;17.57;43.22;100770.47;5046647;28;20437;-78
2022/04/12 09:19:45;;;;;;;13.25;4.28;;;;;;;17.68;42.37;100760.19;5031887;28;20035;-78
2022/04/12 09:22:13;;;;;;;8.02;5.07;;;;;;;17.62;43.28;100752.34;5043705;28;20032;-79
2022/04/12 09:24:59;;;;;;;11.15;4.85;;;;;;;18.03;43.14;100761.78;5061621;28;20043;-78
2022/04/12 09:27:30;;;;;;;7.18;3.75;;;;;;;18.29;43.22;100747.75;5030035;28;20020;-78
2022/04/12 09:30:23;;;;;;;11.65;4.00;;;;;;;18.70;41.56;100759.66;5031221;28;20040;-78
2022/04/12 09:32:50;;;;;;;11.02;4.43;;;;;;;18.75;41.63;100754.59;5044810;28;20048;-79
2022/04/12 09:35:16;;;;;;;13.55;4.35;;;;;;;18.65;40.89;100756.88;5061255;28;20036;-79
2022/04/12 09:37:44;;;;;;;7.22;3.78;;;;;;;18.36;41.53;100745.91;5041603;28;20028;-78
2022/04/12 09:40:13;;;;;;;10.90;3.97;;;;;;;18.70;41.23;100736.03;5043427;28;20037;-79
2022/04/12 09:42:48;;;;;;;11.07;4.82;;;;;;;18.64;40.90;100740.31;5042909;28;20083;-78
2022/04/12 09:45:33;;;;;;;13.45;4.25;;;;;;;19.05;41.32;100738.28;5028054;28;20090;-79
2022/04/12 09:48:04;;;;;;;10.65;4.25;;;;;;;18.94;40.88;100731.88;5056407;28;20040;-78
2022/04/12 09:50:32;;;;;;;7.18;3.90;;;;;;;19.06;41.54;100732.81;5028244;28;20029;-78
2022/04/12 09:52:59;;;;;;;9.48;3.95;;;;;;;18.84;40.67;100726.28;5039097;28;21793;-78
2022/04/12 09:55:36;;;;;;;6.15;3.30;;;;;;;18.96;41.38;100727.19;5027410;28;20028;-78
2022/04/12 09:58:04;;;;;;;14.85;5.03;;;;;;;19.13;40.81;100724.06;5039790;28;20162;-79
2022/04/12 10:00:31;;;;;;;12.32;3.97;;;;;;;19.34;41.46;100725.50;5025194;28;20032;-79
2022/04/12 10:03:03;;;;;;;8.98;4.10;;;;;;;18.86;40.84;100716.38;5027945;28;20119;-76
2022/04/12 10:05:29;;;;;;;8.13;3.97;;;;;;;18.98;41.60;100721.75;5061361;28;20028;-79
2022/04/12 10:07:59;;;;;;;11.52;4.70;;;;;;;18.75;41.73;100728.31;5060047;28;20040;-76
2022/04/12 10:10:26;;;;;;;9.60;3.53;;;;;;;18.79;42.41;100724.25;5058173;28;20197;-78
2022/04/12 10:12:59;;;;;;;7.63;3.70;;;;;;;19.02;42.37;100728.19;5061747;28;20477;-79
2022/04/12 10:15:29;;;;;;;9.15;4.05;;;;;;;19.35;41.54;100712.16;5041690;28;20392;-77
2022/04/12 10:17:55;;;;;;;8.45;3.47;;;;;;;19.40;41.61;100716.75;5057866;28;20130;-78
2022/04/12 10:20:21;;;;;;;8.68;3.17;;;;;;;19.63;40.28;100714.31;5041526;28;20395;-78
2022/04/12 10:22:48;;;;;;;8.75;3.63;;;;;;;19.82;40.78;100709.09;5042509;28;20584;-78
2022/04/12 10:25:20;;;;;;;12.35;4.78;;;;;;;19.96;39.70;100713.16;5041778;28;20024;-77
2022/04/12 10:27:47;;;;;;;9.00;4.38;;;;;;;19.83;38.49;100701.00;5042112;28;20571;-77
2022/04/12 10:30:20;;;;;;;11.07;3.22;;;;;;;19.57;40.14;100702.03;5038417;28;20051;-79
2022/04/12 10:33:00;;;;;;;7.57;3.03;;;;;;;19.82;40.66;100695.94;5060478;28;20116;-78
2022/04/12 10:35:47;;;;;;;7.78;3.70;;;;;;;19.81;39.80;100689.84;5024350;28;20070;-78
2022/04/12 10:38:14;;;;;;;10.20;3.10;;;;;;;19.99;40.38;100706.69;5030750;28;20071;-79
2022/04/12 10:40:47;;;;;;;12.05;2.80;;;;;;;20.00;39.59;100701.19;5041490;28;20039;-78
2022/04/12 10:43:14;;;;;;;8.25;3.00;;;;;;;19.85;39.39;100700.75;5045059;28;20028;-79
2022/04/12 10:45:51;;;;;;;7.07;2.70;;;;;;;20.09;39.72;100701.69;5043062;28;20029;-79
2022/04/12 10:48:22;;;;;;;7.32;2.92;;;;;;;20.35;38.90;100692.66;5043246;28;20078;-79
2022/04/12 10:50:50;;;;;;;13.35;3.28;;;;;;;20.28;39.24;100693.75;5060734;28;20028;-78
2022/04/12 10:53:35;;;;;;;7.15;2.50;;;;;;;20.36;39.17;100689.00;5024401;28;20646;-78
2022/04/12 10:56:15;;;;;;;6.85;3.00;;;;;;;20.44;39.24;100687.88;5021537;28;20044;-78
2022/04/12 10:58:43;;;;;;;9.00;2.95;;;;;;;20.37;39.80;100690.59;5024428;28;20365;-79
2022/04/12 11:01:36;;;;;;;6.40;3.33;;;;;;;20.20;39.02;100674.63;5045011;28;20451;-76
2022/04/12 11:04:05;;;;;;;7.07;3.15;;;;;;;20.44;39.04;100666.81;5040630;28;20051;-78
2022/04/12 11:06:34;;;;;;;5.90;2.60;;;;;;;20.47;39.16;100665.56;5055104;28;20058;-78
2022/04/12 11:09:11;;;;;;;3.53;2.30;;;;;;;20.63;40.30;100664.16;5038917;28;20733;-79
2022/04/12 11:11:44;;;;;;;7.88;3.03;;;;;;;20.87;39.26;100664.97;5038810;28;20037;-80
2022/04/12 11:14:24;;;;;;;5.35;2.53;;;;;;;20.85;38.84;100662.59;5057802;28;20531;-79
2022/04/12 11:16:55;;;;;;;8.38;3.17;;;;;;;20.82;37.46;100657.75;5037379;28;20043;-79
2022/04/12 11:19:21;;;;;;;5.00;2.92;;;;;;;20.66;38.67;100659.19;5037897;28;20375;-79
2022/04/12 11:21:55;;;;;;;7.15;3.00;;;;;;;20.54;37.68;100658.38;5038208;28;20143;-76
2022/04/12 11:24:22;;;;;;;9.60;3.10;;;;;;;20.53;38.23;100652.31;5023655;28;20024;-79
2022/04/12 11:27:00;;;;;;;8.93;3.58;;;;;;;20.66;37.60;100653.13;5039565;28;20040;-79
2022/04/12 11:29:27;;;;;;;6.47;3.00;;;;;;;20.58;38.84;100655.03;5052530;28;20593;-79
2022/04/12 11:31:54;;;;;;;10.85;3.53;;;;;;;20.71;38.12;100653.28;5055661;28;20035;-78